createdAt,value
2018-05-27T00:00:52.665Z,99.90
2018-05-27T00:03:20.116Z,99.90
2018-05-27T00:05:48.365Z,99.90
2018-05-27T00:08:15.829Z,99.90
2018-05-27T00:10:43.314Z,99.90
2018-05-27T00:13:10.875Z,99.90
2018-05-27T00:15:39.309Z,99.90
2018-05-27T00:18:06.785Z,99.90
2018-05-27T00:20:34.281Z,99.90
2018-05-27T00:23:03.252Z,99.90
2018-05-27T00:25:30.717Z,99.90
2018-05-27T00:27:58.194Z,99.90
2018-05-27T00:30:25.735Z,99.90
2018-05-27T00:32:53.200Z,99.90
2018-05-27T00:35:21.444Z,99.90
2018-05-27T00:37:48.917Z,99.90
2018-05-27T00:40:16.387Z,99.90
2018-05-27T00:42:43.938Z,99.90
2018-05-27T00:45:11.414Z,99.90
2018-05-27T00:47:39.484Z,99.90
2018-05-27T00:50:06.969Z,99.90
2018-05-27T00:52:35.213Z,99.90
2018-05-27T00:55:02.696Z,99.90
2018-05-27T00:57:30.917Z,99.90
2018-05-27T00:59:58.373Z,99.90
2018-05-27T01:02:25.830Z,99.90
2018-05-27T01:04:53.295Z,99.90
2018-05-27T01:07:20.755Z,99.90
2018-05-27T01:09:48.210Z,99.90
2018-05-27T01:12:15.670Z,99.90
2018-05-27T01:14:43.160Z,99.90
2018-05-27T01:17:10.714Z,99.90
2018-05-27T01:19:38.276Z,99.90
2018-05-27T01:22:05.868Z,99.90
2018-05-27T01:24:33.320Z,99.90
2018-05-27T01:27:00.782Z,99.90
2018-05-27T01:29:29.031Z,99.90
2018-05-27T01:31:56.505Z,99.90
2018-05-27T01:34:24.052Z,99.90
2018-05-27T01:36:51.516Z,99.90
2018-05-27T01:39:18.979Z,99.90
2018-05-27T01:41:46.458Z,99.90
2018-05-27T01:44:14.671Z,99.90
2018-05-27T01:46:42.149Z,99.90
2018-05-27T01:49:09.622Z,99.90
2018-05-27T01:51:38.606Z,99.90
2018-05-27T01:54:06.072Z,99.90
2018-05-27T01:56:33.539Z,99.90
2018-05-27T01:59:00.992Z,99.90
2018-05-27T02:01:28.459Z,99.90
2018-05-27T02:03:56.731Z,99.90
2018-05-27T02:06:24.956Z,99.90
2018-05-27T02:08:52.417Z,99.90
2018-05-27T02:11:19.899Z,99.90
2018-05-27T02:13:47.365Z,99.90
2018-05-27T02:16:14.834Z,99.90
2018-05-27T02:18:42.291Z,99.90
2018-05-27T02:21:09.858Z,99.90
2018-05-27T02:23:37.315Z,99.90
2018-05-27T02:26:04.776Z,99.90
2018-05-27T02:28:32.235Z,99.90
2018-05-27T02:30:59.763Z,99.90
2018-05-27T02:33:27.225Z,99.90
2018-05-27T02:35:54.693Z,99.90
2018-05-27T02:38:22.147Z,99.90
2018-05-27T02:40:49.616Z,99.90
2018-05-27T02:43:17.181Z,99.90
2018-05-27T02:45:45.543Z,99.90
2018-05-27T02:48:13.007Z,99.90
2018-05-27T02:50:40.457Z,99.90
2018-05-27T02:53:07.916Z,99.90
2018-05-27T02:55:35.383Z,99.90
2018-05-27T02:58:02.839Z,99.90
2018-05-27T03:00:30.295Z,99.90
2018-05-27T03:02:57.758Z,99.90
2018-05-27T03:05:25.235Z,99.90
2018-05-27T03:07:54.215Z,99.90
2018-05-27T03:10:21.680Z,99.90
2018-05-27T03:12:49.241Z,99.90
2018-05-27T03:15:16.695Z,99.90
2018-05-27T03:17:44.187Z,99.90
2018-05-27T03:20:12.431Z,99.90
2018-05-27T03:22:39.914Z,99.90
2018-05-27T03:25:07.369Z,99.90
2018-05-27T03:27:35.635Z,99.90
2018-05-27T03:30:03.184Z,99.90
2018-05-27T03:32:30.751Z,99.90
2018-05-27T03:34:58.223Z,99.90
2018-05-27T03:37:25.691Z,99.90
2018-05-27T03:39:53.938Z,99.90
2018-05-27T03:42:21.495Z,99.90
2018-05-27T03:44:48.950Z,99.90
2018-05-27T03:47:16.423Z,99.90
2018-05-27T03:49:44.669Z,99.90
2018-05-27T03:52:12.141Z,99.90
2018-05-27T03:54:39.619Z,99.90
2018-05-27T03:57:08.590Z,99.90
2018-05-27T03:59:36.065Z,99.90
2018-05-27T04:02:03.534Z,99.90
2018-05-27T04:04:53.206Z,99.90
2018-05-27T04:07:32.641Z,99.90
2018-05-27T04:10:00.092Z,99.90
2018-05-27T04:12:27.659Z,99.90
2018-05-27T04:14:55.111Z,99.90
2018-05-27T04:17:22.585Z,99.90
2018-05-27T04:19:50.863Z,99.90
2018-05-27T04:22:18.328Z,99.90
2018-05-27T04:24:47.296Z,99.90
2018-05-27T04:27:14.764Z,99.90
2018-05-27T04:29:42.318Z,99.90
2018-05-27T04:32:09.788Z,99.90
2018-05-27T04:34:37.259Z,99.90
2018-05-27T04:37:04.727Z,99.90
2018-05-27T04:39:32.979Z,99.90
2018-05-27T04:42:00.464Z,99.90
2018-05-27T04:44:28.687Z,99.90
2018-05-27T04:46:56.174Z,99.90
2018-05-27T04:49:23.632Z,99.90
2018-05-27T04:51:52.628Z,99.90
2018-05-27T04:54:20.867Z,99.90
2018-05-27T04:56:48.326Z,99.90
2018-05-27T04:59:15.795Z,99.90
2018-05-27T05:01:43.246Z,99.90
2018-05-27T05:04:10.739Z,99.90
2018-05-27T05:06:38.297Z,99.90
2018-05-27T05:09:05.868Z,99.90
2018-05-27T05:11:33.334Z,99.90
2018-05-27T05:14:00.875Z,99.90
2018-05-27T05:16:29.099Z,99.90
2018-05-27T05:18:56.567Z,99.90
2018-05-27T05:21:24.018Z,99.90
2018-05-27T05:23:51.479Z,99.90
2018-05-27T05:26:18.938Z,99.90
2018-05-27T05:28:46.508Z,99.90
2018-05-27T05:31:13.947Z,99.90
2018-05-27T05:33:41.418Z,99.90
2018-05-27T05:36:08.919Z,99.90
2018-05-27T05:38:36.343Z,99.90
2018-05-27T05:41:03.804Z,99.90
2018-05-27T05:43:31.269Z,99.90
2018-05-27T05:45:58.734Z,99.90
2018-05-27T05:48:26.219Z,99.90
2018-05-27T05:50:53.680Z,99.90
2018-05-27T05:53:21.152Z,99.90
2018-05-27T05:55:48.615Z,99.90
2018-05-27T05:58:16.843Z,99.90
2018-05-27T06:00:44.314Z,99.90
2018-05-27T06:03:11.772Z,99.90
2018-05-27T06:05:39.235Z,99.90
2018-05-27T06:08:06.706Z,99.90
2018-05-27T06:10:34.170Z,99.90
2018-05-27T06:13:01.635Z,99.90
2018-05-27T06:15:29.116Z,99.90
2018-05-27T06:17:57.391Z,99.90
2018-05-27T06:20:25.623Z,99.90
2018-05-27T06:22:53.084Z,99.90
2018-05-27T06:25:20.555Z,99.90
2018-05-27T06:27:48.015Z,99.90
2018-05-27T06:30:15.484Z,99.90
2018-05-27T06:32:43.712Z,99.90
2018-05-27T06:35:11.188Z,99.90
2018-05-27T06:37:38.655Z,99.90
2018-05-27T06:40:06.124Z,99.90
2018-05-27T06:42:33.585Z,99.90
2018-05-27T06:45:01.047Z,99.90
2018-05-27T06:47:28.522Z,99.90
2018-05-27T06:49:56.752Z,99.90
2018-05-27T06:52:24.203Z,99.90
2018-05-27T06:54:51.667Z,99.90
2018-05-27T06:57:19.887Z,99.90
2018-05-27T06:59:48.113Z,99.90
2018-05-27T07:02:15.574Z,99.90
2018-05-27T07:04:43.117Z,99.90
2018-05-27T07:07:10.516Z,99.90
2018-05-27T07:09:38.766Z,99.90
2018-05-27T07:12:06.218Z,99.90
2018-05-27T07:14:33.691Z,99.90
2018-05-27T07:17:01.191Z,99.90
2018-05-27T07:19:28.645Z,99.90
2018-05-27T07:21:56.099Z,99.90
2018-05-27T07:24:23.566Z,99.90
2018-05-27T07:26:51.036Z,99.90
2018-05-27T07:29:19.266Z,99.90
2018-05-27T07:31:46.734Z,99.90
2018-05-27T07:34:14.185Z,99.90
2018-05-27T07:36:41.658Z,99.90
2018-05-27T07:39:09.139Z,99.90
2018-05-27T07:41:36.585Z,99.90
2018-05-27T07:44:04.044Z,99.90
2018-05-27T07:46:31.518Z,99.90
2018-05-27T07:48:59.152Z,99.90
2018-05-27T07:51:26.596Z,99.90
2018-05-27T07:53:54.047Z,99.90
2018-05-27T07:56:21.510Z,99.90
2018-05-27T07:58:48.979Z,99.90
2018-05-27T08:01:16.444Z,99.90
2018-05-27T08:03:43.904Z,99.90
2018-05-27T08:06:11.361Z,99.90
2018-05-27T08:08:38.822Z,99.90
2018-05-27T08:11:06.293Z,99.90
2018-05-27T08:13:33.755Z,99.90
2018-05-27T08:16:01.211Z,99.90
2018-05-27T08:18:28.711Z,99.90
2018-05-27T08:20:56.176Z,99.90
2018-05-27T08:23:23.634Z,99.90
2018-05-27T08:25:51.099Z,99.90
2018-05-27T08:28:18.556Z,99.90
2018-05-27T08:30:46.035Z,99.90
2018-05-27T08:33:13.505Z,99.90
2018-05-27T08:35:40.967Z,99.90
2018-05-27T08:38:08.425Z,99.90
2018-05-27T08:40:35.887Z,99.90
2018-05-27T08:43:03.341Z,99.90
2018-05-27T08:45:30.868Z,99.90
2018-05-27T08:47:58.320Z,99.80
2018-05-27T08:50:27.007Z,99.90
2018-05-27T08:52:54.449Z,99.20
2018-05-27T08:55:21.911Z,98.90
2018-05-27T08:57:49.382Z,98.30
2018-05-27T09:00:17.016Z,99.70
2018-05-27T09:02:45.237Z,98.10
2018-05-27T09:05:12.698Z,98.10
2018-05-27T09:07:40.172Z,98.20
2018-05-27T09:10:07.623Z,98.40
2018-05-27T09:12:35.097Z,97.40
2018-05-27T09:15:02.569Z,97.10
2018-05-27T09:17:30.016Z,98.70
2018-05-27T09:19:57.464Z,97.80
2018-05-27T09:22:24.915Z,98.00
2018-05-27T09:27:46.056Z,97.00
2018-05-27T09:30:15.171Z,96.90
2018-05-27T09:32:42.632Z,97.50
2018-05-27T09:35:10.097Z,96.70
2018-05-27T09:37:38.331Z,95.80
2018-05-27T09:40:05.792Z,95.70
2018-05-27T09:42:33.253Z,95.40
2018-05-27T09:45:00.797Z,95.40
2018-05-27T09:47:28.204Z,94.80
2018-05-27T09:49:56.428Z,95.20
2018-05-27T09:52:23.937Z,95.20
2018-05-27T09:54:51.420Z,94.60
2018-05-27T09:57:19.647Z,95.00
2018-05-27T09:59:47.109Z,95.00
2018-05-27T10:02:14.597Z,95.90
2018-05-27T10:04:42.090Z,95.30
2018-05-27T10:07:09.545Z,96.60
2018-05-27T10:09:37.008Z,96.00
2018-05-27T10:12:04.477Z,96.80
2018-05-27T10:14:31.936Z,97.10
2018-05-27T10:16:59.404Z,97.50
2018-05-27T10:19:26.861Z,97.70
2018-05-27T10:21:54.328Z,98.20
2018-05-27T10:24:22.330Z,98.50
2018-05-27T10:26:49.812Z,98.80
2018-05-27T10:29:17.273Z,98.50
2018-05-27T10:31:44.745Z,99.90
2018-05-27T10:34:12.200Z,98.60
2018-05-27T10:36:39.678Z,98.70
2018-05-27T10:39:07.193Z,99.20
2018-05-27T10:41:34.691Z,97.90
2018-05-27T10:44:02.155Z,97.90
2018-05-27T10:46:29.629Z,99.20
2018-05-27T10:48:57.093Z,98.10
2018-05-27T10:51:24.556Z,98.50
2018-05-27T10:53:52.017Z,97.40
2018-05-27T10:56:19.499Z,97.70
2018-05-27T10:58:47.724Z,95.40
2018-05-27T11:01:15.185Z,95.40
2018-05-27T11:03:42.655Z,94.10
2018-05-27T11:06:10.112Z,94.30
2018-05-27T11:08:37.577Z,95.00
2018-05-27T11:11:05.030Z,94.80
2018-05-27T11:13:32.507Z,93.30
2018-05-27T11:15:59.960Z,93.30
2018-05-27T11:18:27.432Z,94.30
2018-05-27T11:20:54.900Z,94.40
2018-05-27T11:23:22.372Z,94.50
2018-05-27T11:25:50.604Z,95.70
2018-05-27T11:28:18.087Z,95.70
2018-05-27T11:30:45.535Z,94.90
2018-05-27T11:33:13.000Z,95.00
2018-05-27T11:35:40.457Z,94.70
2018-05-27T11:38:07.949Z,95.20
2018-05-27T11:40:36.173Z,94.40
2018-05-27T11:43:03.649Z,94.40
2018-05-27T11:45:31.117Z,94.30
2018-05-27T11:47:58.581Z,96.30
2018-05-27T11:50:26.875Z,93.40
2018-05-27T11:52:54.344Z,93.30
2018-05-27T11:55:21.808Z,93.20
2018-05-27T11:57:49.288Z,94.20
2018-05-27T12:00:16.750Z,93.70
2018-05-27T12:02:44.237Z,93.60
2018-05-27T12:05:11.695Z,94.70
2018-05-27T12:07:39.176Z,93.90
2018-05-27T12:10:07.469Z,94.70
2018-05-27T12:12:35.689Z,94.40
2018-05-27T12:15:03.534Z,94.40
2018-05-27T12:17:30.994Z,94.60
2018-05-27T12:19:58.461Z,94.80
2018-05-27T12:22:25.920Z,95.30
2018-05-27T12:24:53.373Z,95.50
2018-05-27T12:27:20.844Z,95.80
2018-05-27T12:29:48.374Z,95.50
2018-05-27T12:32:15.767Z,95.90
2018-05-27T12:34:43.237Z,97.00
2018-05-27T12:37:10.715Z,95.50
2018-05-27T12:39:38.169Z,95.80
2018-05-27T12:42:05.635Z,96.00
2018-05-27T12:44:33.105Z,96.20
2018-05-27T12:47:01.324Z,94.60
2018-05-27T12:49:28.890Z,94.60
2018-05-27T12:51:56.353Z,94.30
2018-05-27T12:54:23.816Z,94.30
2018-05-27T12:56:51.277Z,94.90
2018-05-27T12:59:18.748Z,94.90
2018-05-27T13:01:46.208Z,95.30
2018-05-27T13:04:13.665Z,95.70
2018-05-27T13:06:41.227Z,95.20
2018-05-27T13:09:08.679Z,96.10
2018-05-27T13:11:36.143Z,96.60
2018-05-27T13:14:03.604Z,96.60
2018-05-27T13:16:31.218Z,95.80
2018-05-27T13:18:59.441Z,96.20
2018-05-27T13:21:26.909Z,96.20
2018-05-27T13:23:54.362Z,96.10
2018-05-27T13:26:21.827Z,96.30
2018-05-27T13:28:49.283Z,97.80
2018-05-27T13:31:16.862Z,97.50
2018-05-27T13:33:44.324Z,97.10
2018-05-27T13:38:47.287Z,96.20
2018-05-27T13:41:14.781Z,96.20
2018-05-27T13:43:43.038Z,96.50
2018-05-27T13:46:10.537Z,96.40
2018-05-27T13:48:38.772Z,98.10
2018-05-27T13:51:06.224Z,98.10
2018-05-27T13:53:33.693Z,96.30
2018-05-27T13:56:01.151Z,95.60
2018-05-27T13:58:28.615Z,95.80
2018-05-27T14:00:56.079Z,95.30
2018-05-27T14:03:23.544Z,95.30
2018-05-27T14:05:51.000Z,94.90
2018-05-27T14:08:18.459Z,94.60
2018-05-27T14:10:45.916Z,94.50
2018-05-27T14:13:13.390Z,94.50
2018-05-27T14:15:41.618Z,94.90
2018-05-27T14:18:09.080Z,94.90
2018-05-27T14:20:36.654Z,94.70
2018-05-27T14:23:04.136Z,94.30
2018-05-27T14:25:32.372Z,94.40
2018-05-27T14:27:59.913Z,94.40
2018-05-27T14:30:27.368Z,93.40
2018-05-27T14:32:54.860Z,93.90
2018-05-27T14:35:22.345Z,93.90
2018-05-27T14:37:49.799Z,93.40
2018-05-27T14:40:17.259Z,94.20
2018-05-27T14:42:44.764Z,94.00
2018-05-27T14:45:12.238Z,93.60
2018-05-27T14:47:39.689Z,93.50
2018-05-27T14:50:07.196Z,93.80
2018-05-27T14:52:34.678Z,93.90
2018-05-27T14:55:02.907Z,94.80
2018-05-27T14:57:30.392Z,94.80
2018-05-27T15:00:10.793Z,94.60
2018-05-27T15:02:38.295Z,94.00
2018-05-27T15:05:05.755Z,94.80
2018-05-27T15:07:33.229Z,93.90
2018-05-27T15:10:00.683Z,92.50
2018-05-27T15:12:28.148Z,92.40
2018-05-27T15:14:55.626Z,92.60
2018-05-27T15:17:23.844Z,92.20
2018-05-27T15:19:51.308Z,92.20
2018-05-27T15:22:19.533Z,92.30
2018-05-27T15:24:47.811Z,92.30
2018-05-27T15:27:16.035Z,92.30
2018-05-27T15:29:43.512Z,92.30
2018-05-27T15:32:10.971Z,92.10
2018-05-27T15:34:38.496Z,92.50
2018-05-27T15:37:05.976Z,92.20
2018-05-27T15:39:33.442Z,91.90
2018-05-27T15:42:00.900Z,92.60
2018-05-27T15:44:28.375Z,92.30
2018-05-27T15:46:55.829Z,92.80
2018-05-27T15:49:23.296Z,92.60
2018-05-27T15:51:50.745Z,92.50
2018-05-27T15:54:18.204Z,92.50
2018-05-27T15:56:45.673Z,92.50
2018-05-27T15:59:13.153Z,92.30
2018-05-27T16:01:41.376Z,92.40
2018-05-27T16:04:08.846Z,92.40
2018-05-27T16:06:36.305Z,92.90
2018-05-27T16:09:03.768Z,92.80
2018-05-27T16:11:31.229Z,92.90
2018-05-27T16:13:58.688Z,92.80
2018-05-27T16:16:26.145Z,92.90
2018-05-27T16:18:53.600Z,92.10
2018-05-27T16:21:21.077Z,91.90
2018-05-27T16:23:48.549Z,91.40
2018-05-27T16:26:16.779Z,91.70
2018-05-27T16:28:44.249Z,91.90
2018-05-27T16:31:11.720Z,91.50
2018-05-27T16:33:39.177Z,91.50
2018-05-27T16:36:06.708Z,92.00
2018-05-27T16:38:34.172Z,91.80
2018-05-27T16:41:01.694Z,92.20
2018-05-27T16:43:29.140Z,93.70
2018-05-27T16:45:57.374Z,92.90
2018-05-27T16:48:24.829Z,92.90
2018-05-27T16:50:52.299Z,93.00
2018-05-27T16:53:19.755Z,92.40
2018-05-27T16:55:47.224Z,94.00
2018-05-27T16:58:14.693Z,93.50
2018-05-27T17:00:42.172Z,93.30
2018-05-27T17:03:10.391Z,94.20
2018-05-27T17:05:37.859Z,94.20
2018-05-27T17:08:05.319Z,94.50
2018-05-27T17:10:32.781Z,94.50
2018-05-27T17:13:00.250Z,94.50
2018-05-27T17:15:27.704Z,94.50
2018-05-27T17:17:55.156Z,94.40
2018-05-27T17:20:22.629Z,95.30
2018-05-27T17:22:50.083Z,94.10
2018-05-27T17:25:17.553Z,93.80
2018-05-27T17:27:45.010Z,92.60
2018-05-27T17:30:12.467Z,94.70
2018-05-27T17:32:39.920Z,94.20
2018-05-27T17:35:07.393Z,93.30
2018-05-27T17:37:34.864Z,94.70
2018-05-27T17:40:03.109Z,93.90
2018-05-27T17:42:30.563Z,93.90
2018-05-27T17:44:58.061Z,94.10
2018-05-27T17:47:25.509Z,94.30
2018-05-27T17:49:52.989Z,93.00
2018-05-27T17:52:21.220Z,92.50
2018-05-27T17:54:48.676Z,92.40
2018-05-27T17:57:16.141Z,92.90
2018-05-27T17:59:43.600Z,90.90
2018-05-27T18:02:11.077Z,91.00
2018-05-27T18:04:38.554Z,91.20
2018-05-27T18:07:06.780Z,91.70
2018-05-27T18:09:34.238Z,91.70
2018-05-27T18:12:01.709Z,92.00
2018-05-27T18:14:29.930Z,92.50
2018-05-27T18:16:58.152Z,93.00
2018-05-27T18:19:25.996Z,93.00
2018-05-27T18:21:53.473Z,92.60
2018-05-27T18:24:20.930Z,93.60
2018-05-27T18:26:48.400Z,93.20
2018-05-27T18:29:15.878Z,93.20
2018-05-27T18:31:43.350Z,93.70
2018-05-27T18:34:10.848Z,94.80
2018-05-27T18:36:38.314Z,96.70
2018-05-27T18:39:05.869Z,98.00
2018-05-27T18:41:33.326Z,98.20
2018-05-27T18:44:00.796Z,98.00
2018-05-27T18:46:28.263Z,98.40
2018-05-27T18:48:55.712Z,98.30
2018-05-27T18:51:23.180Z,98.50
2018-05-27T18:53:50.644Z,98.30
2018-05-27T18:56:18.116Z,98.80
2018-05-27T18:58:45.816Z,98.50
2018-05-27T19:01:14.032Z,97.90
2018-05-27T19:03:41.516Z,97.80
2018-05-27T19:06:08.977Z,97.80
2018-05-27T19:08:36.455Z,98.20
2018-05-27T19:11:03.916Z,98.30
2018-05-27T19:13:32.142Z,99.00
2018-05-27T19:15:59.614Z,99.00
2018-05-27T19:18:27.100Z,99.20
2018-05-27T19:20:54.575Z,99.40
2018-05-27T19:23:22.804Z,99.60
2018-05-27T19:25:50.284Z,99.60
2018-05-27T19:28:17.781Z,99.20
2018-05-27T19:30:46.025Z,99.50
2018-05-27T19:33:13.474Z,99.70
2018-05-27T19:35:40.936Z,99.50
2018-05-27T19:38:08.391Z,99.60
2018-05-27T19:40:35.847Z,99.50
2018-05-27T19:43:03.328Z,99.50
2018-05-27T19:45:30.783Z,99.60
2018-05-27T19:47:58.280Z,99.30
2018-05-27T19:50:25.748Z,99.40
2018-05-27T19:52:53.216Z,99.80
2018-05-27T19:55:20.677Z,99.60
2018-05-27T19:57:48.190Z,99.70
2018-05-27T20:00:15.614Z,99.70
2018-05-27T20:02:43.080Z,99.60
2018-05-27T20:05:10.540Z,99.60
2018-05-27T20:07:38.056Z,99.90
2018-05-27T20:10:05.520Z,99.90
2018-05-27T20:12:32.994Z,99.90
2018-05-27T20:15:00.465Z,99.90
2018-05-27T20:17:27.918Z,99.90
2018-05-27T20:19:55.375Z,99.90
2018-05-27T20:22:22.846Z,99.90
2018-05-27T20:24:50.307Z,99.90
2018-05-27T20:27:17.777Z,99.90
2018-05-27T20:29:45.254Z,99.90
2018-05-27T20:32:13.491Z,99.90
2018-05-27T20:34:40.945Z,99.90
2018-05-27T20:37:08.451Z,99.90
2018-05-27T20:39:36.672Z,99.90
2018-05-27T20:42:04.141Z,99.90
2018-05-27T20:44:31.611Z,99.90
2018-05-27T20:46:59.104Z,99.90
2018-05-27T20:49:26.575Z,99.90
2018-05-27T20:51:54.045Z,99.90
2018-05-27T20:54:21.505Z,99.90
2018-05-27T20:56:49.012Z,99.90
2018-05-27T20:59:16.484Z,99.90
2018-05-27T21:01:43.953Z,99.90
2018-05-27T21:04:12.193Z,99.90
2018-05-27T21:06:44.511Z,99.90
2018-05-27T21:09:12.741Z,99.90
2018-05-27T21:11:40.211Z,99.90
2018-05-27T21:14:07.677Z,99.90
2018-05-27T21:16:35.146Z,99.90
2018-05-27T21:19:02.615Z,99.90
2018-05-27T21:21:30.846Z,99.90
2018-05-27T21:23:58.322Z,99.90
2018-05-27T21:26:25.787Z,99.90
2018-05-27T21:28:53.260Z,99.90
2018-05-27T21:31:21.493Z,99.90
2018-05-27T21:33:48.959Z,99.90
2018-05-27T21:36:16.495Z,99.90
2018-05-27T21:38:43.961Z,99.90
2018-05-27T21:41:11.461Z,99.90
2018-05-27T21:43:38.934Z,99.90
2018-05-27T21:46:07.215Z,99.90
2018-05-27T21:48:34.656Z,99.90
2018-05-27T21:51:02.112Z,99.90
2018-05-27T21:53:29.585Z,99.90
2018-05-27T21:55:57.829Z,99.90
2018-05-27T21:58:25.297Z,99.90
2018-05-27T22:00:52.759Z,99.90
2018-05-27T22:03:20.279Z,99.90
2018-05-27T22:05:47.738Z,99.90
2018-05-27T22:08:15.200Z,99.90
2018-05-27T22:10:42.663Z,99.90
2018-05-27T22:13:10.141Z,99.90
2018-05-27T22:15:37.606Z,99.90
2018-05-27T22:18:05.077Z,99.90
2018-05-27T22:20:32.580Z,99.90
2018-05-27T22:22:59.991Z,99.90
2018-05-27T22:25:27.499Z,99.90
2018-05-27T22:27:55.022Z,99.90
2018-05-27T22:30:22.427Z,99.90
2018-05-27T22:32:49.897Z,99.90
2018-05-27T22:35:17.362Z,99.90
2018-05-27T22:37:44.823Z,99.90
2018-05-27T22:40:12.283Z,99.90
2018-05-27T22:42:39.756Z,99.90
2018-05-27T22:45:07.227Z,99.90
2018-05-27T22:47:34.691Z,99.90
2018-05-27T22:50:02.932Z,99.90
2018-05-27T22:52:30.410Z,99.90
2018-05-27T22:54:58.448Z,99.90
2018-05-27T22:57:25.913Z,99.90
2018-05-27T22:59:53.383Z,99.90
2018-05-27T23:02:20.859Z,99.90
2018-05-27T23:04:48.316Z,99.90
2018-05-27T23:07:15.776Z,99.90
2018-05-27T23:09:43.248Z,99.90
2018-05-27T23:12:11.485Z,99.90
2018-05-27T23:14:38.958Z,99.90
2018-05-27T23:17:06.433Z,99.90
2018-05-27T23:19:33.900Z,99.90
2018-05-27T23:22:02.128Z,99.90
2018-05-27T23:24:29.609Z,99.90
2018-05-27T23:26:57.087Z,99.90
2018-05-27T23:29:24.553Z,99.90
2018-05-27T23:31:52.793Z,99.90
2018-05-27T23:34:20.265Z,99.90
2018-05-27T23:36:47.719Z,99.90
2018-05-27T23:39:15.192Z,99.90
2018-05-27T23:41:42.652Z,99.90
2018-05-27T23:44:10.123Z,99.90
2018-05-27T23:46:38.360Z,99.90
2018-05-27T23:49:05.832Z,99.90
2018-05-27T23:51:33.283Z,99.90
2018-05-27T23:54:00.757Z,99.90
2018-05-27T23:56:28.215Z,99.90
2018-05-27T23:58:55.684Z,99.90
